Time;durP1;ratioP1;P1;durP2;ratioP2;P2;SDS_P1;SDS_P2;PMS_P1;PMS_P2;Temp;Humidity;BMP_temperature;BMP_pressure;BME280_temperature;BME280_humidity;BME280_pressure;Samples;Min_cycle;Max_cycle;Signal;HPM_P1;HPM_P2
2022/03/30 00:02:12;;;;;;;10.85;6.65;;;;;12.40;100705.00;;;;4968129;28;20256;-78
2022/03/30 00:04:39;;;;;;;12.23;7.45;;;;;12.40;100702.00;;;;4972689;28;20206;-78
2022/03/30 00:07:07;;;;;;;12.77;7.55;;;;;12.30;100701.00;;;;4971062;28;20324;-79
2022/03/30 00:09:34;;;;;;;11.50;7.47;;;;;12.30;100702.00;;;;4969808;28;20206;-78
2022/03/30 00:12:01;;;;;;;13.30;7.20;;;;;12.20;100699.00;;;;4966741;28;20202;-78
2022/03/30 00:14:30;;;;;;;13.25;7.28;;;;;12.20;100699.00;;;;4966222;28;20218;-79
2022/03/30 00:16:57;;;;;;;10.93;6.90;;;;;12.20;100693.00;;;;4969401;28;20257;-78
2022/03/30 00:19:25;;;;;;;11.07;6.88;;;;;12.10;100700.00;;;;4968729;28;20229;-78
2022/03/30 00:21:52;;;;;;;14.30;6.82;;;;;12.10;100693.00;;;;4968898;28;20232;-78
2022/03/30 00:24:19;;;;;;;15.10;7.32;;;;;12.10;100695.00;;;;4972172;28;20207;-78
2022/03/30 00:26:46;;;;;;;14.70;7.55;;;;;12.00;100690.00;;;;4979763;28;20673;-78
2022/03/30 00:29:14;;;;;;;12.63;6.88;;;;;12.00;100688.00;;;;4973330;28;20202;-79
2022/03/30 00:31:42;;;;;;;10.48;6.68;;;;;12.00;100693.00;;;;4972122;28;20202;-78
2022/03/30 00:34:10;;;;;;;12.55;7.20;;;;;12.00;100686.00;;;;4975111;28;20206;-78
2022/03/30 00:36:38;;;;;;;14.30;8.10;;;;;11.90;100686.00;;;;4973817;28;20221;-78
2022/03/30 00:39:05;;;;;;;13.88;7.50;;;;;11.90;100688.00;;;;4974393;28;20233;-78
2022/03/30 00:41:33;;;;;;;14.80;8.40;;;;;11.90;100692.00;;;;4972891;28;20205;-79
2022/03/30 00:44:07;;;;;;;13.70;7.32;;;;;11.80;100690.00;;;;4972888;28;20612;-78
2022/03/30 00:46:34;;;;;;;14.65;7.05;;;;;11.80;100680.00;;;;4970475;28;20201;-78
2022/03/30 00:49:05;;;;;;;12.45;7.15;;;;;11.80;100694.00;;;;4972590;28;20198;-78
2022/03/30 00:51:33;;;;;;;12.93;6.68;;;;;11.80;100691.00;;;;4971988;28;20210;-78
2022/03/30 00:54:00;;;;;;;10.55;6.43;;;;;11.70;100694.00;;;;4973812;28;20210;-78
2022/03/30 00:56:30;;;;;;;13.48;7.30;;;;;11.70;100693.00;;;;4972950;28;20194;-78
2022/03/30 00:58:57;;;;;;;17.00;7.32;;;;;11.70;100687.00;;;;4973968;28;20232;-77
2022/03/30 01:01:25;;;;;;;13.63;7.45;;;;;11.70;100697.00;;;;4974496;28;20240;-77
2022/03/30 01:03:52;;;;;;;12.80;7.10;;;;;11.70;100695.00;;;;4970144;28;20209;-78
2022/03/30 01:06:21;;;;;;;11.30;7.28;;;;;11.60;100691.00;;;;4979257;28;20198;-77
2022/03/30 01:08:48;;;;;;;12.30;7.13;;;;;11.60;100674.00;;;;4979986;28;20240;-78
2022/03/30 01:11:16;;;;;;;13.52;6.38;;;;;11.60;100678.00;;;;4980707;28;20213;-77
2022/03/30 01:13:43;;;;;;;10.93;6.57;;;;;11.60;100676.00;;;;4973568;28;20568;-77
2022/03/30 01:16:11;;;;;;;12.07;7.72;;;;;11.60;100670.00;;;;4977458;28;20234;-78
2022/03/30 01:18:39;;;;;;;13.30;7.22;;;;;11.60;100668.00;;;;4976111;28;20229;-79
2022/03/30 01:21:08;;;;;;;13.23;7.03;;;;;11.60;100670.00;;;;4972812;28;20205;-78
2022/03/30 01:23:35;;;;;;;13.20;7.65;;;;;11.60;100670.00;;;;4980420;28;20206;-78
2022/03/30 01:26:06;;;;;;;13.75;7.68;;;;;11.60;100673.00;;;;4979672;28;20660;-78
2022/03/30 01:28:33;;;;;;;16.77;7.75;;;;;11.60;100671.00;;;;4972678;28;20205;-78
2022/03/30 01:33:49;;;;;;;11.63;6.80;;;;;11.50;100672.00;;;;4982367;28;20208;-79
2022/03/30 01:36:19;;;;;;;10.43;6.18;;;;;11.50;100671.00;;;;4979855;28;20228;-78
2022/03/30 01:38:46;;;;;;;13.65;7.32;;;;;11.50;100657.00;;;;4969884;28;20221;-78
2022/03/30 01:41:13;;;;;;;13.52;6.55;;;;;11.50;100655.00;;;;4968603;28;20198;-78
2022/03/30 01:43:40;;;;;;;12.05;7.13;;;;;11.50;100655.00;;;;4975749;28;20199;-78
2022/03/30 01:46:08;;;;;;;11.02;6.50;;;;;11.50;100650.00;;;;4983449;28;20248;-78
2022/03/30 01:48:36;;;;;;;12.50;7.10;;;;;11.50;100649.00;;;;4990482;28;20936;-78
2022/03/30 01:51:03;;;;;;;13.13;7.90;;;;;11.50;100646.00;;;;4986092;28;20201;-78
2022/03/30 01:53:32;;;;;;;13.13;7.53;;;;;11.40;100637.00;;;;4979097;28;20210;-78
2022/03/30 01:55:59;;;;;;;10.52;6.35;;;;;11.40;100632.00;;;;4986319;28;20198;-78
2022/03/30 01:58:26;;;;;;;12.65;7.03;;;;;11.40;100628.00;;;;4979337;28;20281;-78
2022/03/30 02:00:53;;;;;;;11.30;6.57;;;;;11.40;100633.00;;;;4977417;28;20226;-78
2022/03/30 02:03:21;;;;;;;12.05;6.70;;;;;11.30;100626.00;;;;4977042;28;20194;-79
2022/03/30 02:05:49;;;;;;;12.27;7.07;;;;;11.30;100629.00;;;;4987400;28;20216;-78
2022/03/30 02:08:16;;;;;;;11.57;7.00;;;;;11.30;100631.00;;;;4980921;28;20202;-78
2022/03/30 02:10:45;;;;;;;12.25;6.43;;;;;11.20;100630.00;;;;4975386;28;20209;-78
2022/03/30 02:13:12;;;;;;;10.32;5.78;;;;;11.20;100623.00;;;;4977694;28;20247;-78
2022/03/30 02:15:40;;;;;;;14.77;6.63;;;;;11.20;100622.00;;;;4989109;28;20222;-78
2022/03/30 02:18:08;;;;;;;10.13;6.55;;;;;11.20;100608.00;;;;4981093;28;20225;-78
2022/03/30 02:20:35;;;;;;;11.27;6.68;;;;;11.10;100615.00;;;;4979724;28;20202;-79
2022/03/30 02:23:03;;;;;;;10.32;6.13;;;;;11.10;100606.00;;;;4979887;28;20236;-79
2022/03/30 02:25:30;;;;;;;11.77;6.35;;;;;11.10;100609.00;;;;4984839;28;20987;-79
2022/03/30 02:27:58;;;;;;;9.82;6.78;;;;;11.00;100600.00;;;;4983727;28;20201;-78
2022/03/30 02:30:27;;;;;;;10.52;6.03;;;;;11.00;100601.00;;;;4978801;28;20201;-79
2022/03/30 02:32:54;;;;;;;16.10;7.38;;;;;11.00;100598.00;;;;4977183;28;20205;-79
2022/03/30 02:35:22;;;;;;;13.07;6.60;;;;;10.90;100592.00;;;;4978098;28;20206;-79
2022/03/30 02:37:54;;;;;;;12.45;6.95;;;;;10.90;100590.00;;;;4975652;28;20213;-78
2022/03/30 02:40:23;;;;;;;13.50;6.47;;;;;10.80;100580.00;;;;4982192;28;20199;-79
2022/03/30 02:42:50;;;;;;;10.48;6.30;;;;;10.80;100588.00;;;;4974937;28;20206;-79
2022/03/30 02:45:19;;;;;;;11.32;6.13;;;;;10.80;100586.00;;;;4977805;28;20296;-78
2022/03/30 02:50:31;;;;;;;11.80;6.50;;;;;10.70;100575.00;;;;4975455;28;20208;-78
2022/03/30 02:52:58;;;;;;;11.60;6.82;;;;;10.70;100579.00;;;;4975056;28;20283;-78
2022/03/30 02:55:26;;;;;;;10.68;6.93;;;;;10.70;100576.00;;;;4977485;28;21242;-78
2022/03/30 02:57:53;;;;;;;13.38;7.00;;;;;10.70;100570.00;;;;4994627;28;20212;-78
2022/03/30 03:00:22;;;;;;;16.52;6.97;;;;;10.60;100575.00;;;;4975784;28;20222;-78
2022/03/30 03:02:50;;;;;;;12.77;6.57;;;;;10.60;100559.00;;;;4967381;28;20631;-79
2022/03/30 03:05:17;;;;;;;16.40;7.05;;;;;10.60;100561.00;;;;4970595;28;20202;-78
2022/03/30 03:07:45;;;;;;;10.30;6.50;;;;;10.50;100558.00;;;;4978489;28;20199;-79
2022/03/30 03:10:12;;;;;;;12.70;6.65;;;;;10.50;100556.00;;;;4982606;28;20222;-78
2022/03/30 03:12:40;;;;;;;10.10;6.45;;;;;10.50;100562.00;;;;4974299;28;20195;-78
2022/03/30 03:15:07;;;;;;;11.48;7.60;;;;;10.50;100551.00;;;;4973731;28;20222;-79
2022/03/30 03:17:36;;;;;;;10.57;6.65;;;;;10.40;100551.00;;;;4980972;28;20851;-79
2022/03/30 03:20:05;;;;;;;12.00;6.90;;;;;10.50;100547.00;;;;4977224;28;20241;-79
2022/03/30 03:22:32;;;;;;;11.73;6.07;;;;;10.40;100550.00;;;;4978740;28;20198;-79
2022/03/30 03:25:00;;;;;;;9.20;5.93;;;;;10.40;100548.00;;;;4983354;28;20728;-78
2022/03/30 03:27:28;;;;;;;10.48;7.18;;;;;10.40;100551.00;;;;4972148;28;21641;-79
2022/03/30 03:29:56;;;;;;;13.55;6.10;;;;;10.40;100548.00;;;;4973028;28;20213;-77
2022/03/30 03:32:23;;;;;;;13.18;6.38;;;;;10.40;100544.00;;;;4979181;28;20213;-78
2022/03/30 03:34:52;;;;;;;12.55;6.45;;;;;10.40;100540.00;;;;4981188;28;20201;-78
2022/03/30 03:37:20;;;;;;;9.57;6.18;;;;;10.40;100545.00;;;;4980111;28;20206;-78
2022/03/30 03:39:47;;;;;;;11.63;6.13;;;;;10.30;100534.00;;;;4976855;28;20233;-78
2022/03/30 03:42:16;;;;;;;13.07;6.90;;;;;10.30;100534.00;;;;4975028;28;20202;-79
2022/03/30 03:44:43;;;;;;;11.43;6.97;;;;;10.30;100537.00;;;;4970548;28;20215;-77
2022/03/30 03:47:11;;;;;;;9.65;5.78;;;;;10.30;100539.00;;;;4971844;28;20562;-77
2022/03/30 03:49:39;;;;;;;11.38;6.25;;;;;10.30;100541.00;;;;4974245;28;20224;-77
2022/03/30 03:52:11;;;;;;;13.18;6.30;;;;;10.30;100530.00;;;;4970356;28;20202;-78
2022/03/30 03:54:38;;;;;;;11.32;5.82;;;;;10.30;100534.00;;;;4978105;28;20198;-78
2022/03/30 03:57:06;;;;;;;10.63;5.60;;;;;10.30;100530.00;;;;4979476;28;20197;-78
2022/03/30 03:59:35;;;;;;;12.60;6.50;;;;;10.20;100535.00;;;;4980713;28;20228;-78
2022/03/30 04:02:04;;;;;;;13.93;6.68;;;;;10.30;100531.00;;;;4975178;28;20277;-78
2022/03/30 04:04:31;;;;;;;11.65;6.50;;;;;10.20;100528.00;;;;4975170;28;20201;-77
2022/03/30 04:06:59;;;;;;;15.23;6.22;;;;;10.20;100520.00;;;;4974156;28;20205;-78
2022/03/30 04:09:27;;;;;;;9.82;5.45;;;;;10.20;100512.00;;;;4991172;28;20205;-78
2022/03/30 04:11:56;;;;;;;8.00;4.90;;;;;10.20;100509.00;;;;4978140;28;20203;-78
2022/03/30 04:14:23;;;;;;;12.68;5.70;;;;;10.20;100505.00;;;;4983496;28;20222;-78
2022/03/30 04:16:50;;;;;;;11.60;5.90;;;;;10.20;100508.00;;;;4976784;28;20770;-78
2022/03/30 04:19:18;;;;;;;10.02;5.40;;;;;10.20;100510.00;;;;4984747;28;20222;-78
2022/03/30 04:21:45;;;;;;;7.85;4.70;;;;;10.20;100510.00;;;;4983224;28;20201;-78
2022/03/30 04:24:13;;;;;;;9.80;5.35;;;;;10.20;100518.00;;;;4974297;28;20209;-78
2022/03/30 04:26:42;;;;;;;12.38;5.63;;;;;10.20;100507.00;;;;4973515;28;20206;-78
2022/03/30 04:29:09;;;;;;;9.25;5.15;;;;;10.20;100520.00;;;;4977434;28;20657;-78
2022/03/30 04:31:36;;;;;;;11.32;6.05;;;;;10.20;100531.00;;;;4977537;28;20308;-78
2022/03/30 04:34:03;;;;;;;10.73;6.05;;;;;10.20;100526.00;;;;4973163;28;20322;-78
2022/03/30 04:36:31;;;;;;;11.43;5.68;;;;;10.20;100526.00;;;;4976202;28;20212;-78
2022/03/30 04:38:58;;;;;;;13.13;6.05;;;;;10.20;100521.00;;;;4977923;28;20222;-78
2022/03/30 04:41:25;;;;;;;9.63;5.85;;;;;10.10;100512.00;;;;4978412;28;20772;-78
2022/03/30 04:43:54;;;;;;;11.23;5.88;;;;;10.10;100513.00;;;;4973737;28;20194;-78
2022/03/30 04:46:21;;;;;;;12.02;5.93;;;;;10.10;100511.00;;;;4974218;28;20217;-78
2022/03/30 04:48:48;;;;;;;9.50;5.38;;;;;10.10;100515.00;;;;4968930;28;20628;-78
2022/03/30 04:51:16;;;;;;;12.65;6.15;;;;;10.10;100517.00;;;;4975015;28;20218;-77
2022/03/30 04:53:43;;;;;;;13.20;6.18;;;;;10.00;100510.00;;;;4974086;28;20241;-77
2022/03/30 04:56:10;;;;;;;13.27;5.85;;;;;10.00;100510.00;;;;4975957;28;20615;-77
2022/03/30 04:58:37;;;;;;;11.23;6.65;;;;;10.00;100508.00;;;;4977919;28;20257;-78
2022/03/30 05:01:06;;;;;;;17.55;6.55;;;;;10.00;100506.00;;;;4969788;28;20190;-77
2022/03/30 05:03:33;;;;;;;12.57;6.32;;;;;10.00;100499.00;;;;4973146;28;20226;-78
2022/03/30 05:06:01;;;;;;;13.25;7.20;;;;;10.00;100504.00;;;;4971721;28;20189;-78
2022/03/30 05:08:28;;;;;;;10.82;5.35;;;;;9.90;100500.00;;;;4971473;28;20353;-78
2022/03/30 05:10:55;;;;;;;11.02;6.07;;;;;9.90;100509.00;;;;4971949;28;20214;-78
2022/03/30 05:13:25;;;;;;;10.73;6.18;;;;;9.90;100493.00;;;;4970358;28;20222;-79
2022/03/30 05:15:52;;;;;;;10.23;6.07;;;;;9.90;100496.00;;;;4971665;28;20653;-79
2022/03/30 05:18:22;;;;;;;12.95;6.00;;;;;9.80;100496.00;;;;4970355;28;20209;-78
2022/03/30 05:20:49;;;;;;;10.27;5.72;;;;;9.80;100497.00;;;;4971567;28;20233;-78
2022/03/30 05:23:16;;;;;;;11.48;5.72;;;;;9.80;100498.00;;;;4970562;28;20265;-78
2022/03/30 05:25:44;;;;;;;12.88;6.78;;;;;9.80;100490.00;;;;4970132;28;20246;-78
2022/03/30 05:28:12;;;;;;;10.27;5.72;;;;;9.80;100492.00;;;;4985708;28;20201;-78
2022/03/30 05:30:39;;;;;;;12.43;6.22;;;;;9.80;100500.00;;;;4983888;28;20203;-78
2022/03/30 05:33:08;;;;;;;10.52;5.75;;;;;9.90;100493.00;;;;4964093;28;20198;-78
2022/03/30 05:35:37;;;;;;;8.93;5.90;;;;;9.80;100498.00;;;;4972784;28;20235;-78
2022/03/30 05:38:04;;;;;;;10.20;6.18;;;;;9.90;100491.00;;;;4975233;28;20206;-78
2022/03/30 05:40:31;;;;;;;12.73;5.78;;;;;9.90;100491.00;;;;4976795;28;20236;-78
2022/03/30 05:42:59;;;;;;;8.32;5.15;;;;;9.80;100489.00;;;;4988402;28;20216;-78
2022/03/30 05:45:27;;;;;;;9.23;5.53;;;;;9.80;100483.00;;;;4976806;28;20258;-78
2022/03/30 05:47:54;;;;;;;10.27;6.25;;;;;9.80;100489.00;;;;4972530;28;20202;-78
2022/03/30 05:50:23;;;;;;;12.32;5.65;;;;;9.80;100485.00;;;;4967835;28;20634;-77
2022/03/30 05:52:51;;;;;;;9.98;5.63;;;;;9.80;100486.00;;;;4973691;28;20210;-77
2022/03/30 05:55:19;;;;;;;11.82;5.50;;;;;9.80;100485.00;;;;4975528;28;20590;-78
2022/03/30 05:57:46;;;;;;;12.45;5.60;;;;;9.80;100488.00;;;;4972489;28;20206;-78
2022/03/30 06:00:14;;;;;;;10.93;5.20;;;;;9.80;100486.00;;;;4970223;28;20226;-77
2022/03/30 06:02:42;;;;;;;10.27;5.32;;;;;9.80;100489.00;;;;4970647;28;20213;-76
2022/03/30 06:05:10;;;;;;;10.68;5.30;;;;;9.90;100490.00;;;;4970421;28;20623;-78
2022/03/30 06:07:38;;;;;;;10.98;5.72;;;;;9.90;100485.00;;;;4968134;28;20713;-78
2022/03/30 06:10:07;;;;;;;10.95;5.55;;;;;9.90;100491.00;;;;4968504;28;20243;-78
2022/03/30 06:12:35;;;;;;;11.65;5.60;;;;;9.90;100491.00;;;;4977294;28;20207;-75
2022/03/30 06:15:02;;;;;;;11.88;6.45;;;;;9.90;100493.00;;;;4967770;28;20233;-78
2022/03/30 06:17:29;;;;;;;12.18;6.28;;;;;10.00;100503.00;;;;4971923;28;20201;-78
2022/03/30 06:19:59;;;;;;;10.35;5.78;;;;;10.00;100501.00;;;;4973233;28;20225;-78
2022/03/30 06:22:29;;;;;;;8.43;4.93;;;;;10.00;100497.00;;;;4981958;28;20204;-77
2022/03/30 06:24:57;;;;;;;11.82;5.30;;;;;10.10;100499.00;;;;4975945;28;20312;-77
2022/03/30 06:27:26;;;;;;;11.95;5.97;;;;;10.10;100499.00;;;;4965811;28;20221;-77
2022/03/30 06:29:53;;;;;;;10.88;6.38;;;;;10.10;100504.00;;;;4963908;28;20201;-77
2022/03/30 06:32:21;;;;;;;10.23;6.20;;;;;10.20;100504.00;;;;4963112;28;21159;-77
2022/03/30 06:34:48;;;;;;;12.75;6.68;;;;;10.30;100510.00;;;;4970205;28;20205;-77
2022/03/30 06:37:15;;;;;;;9.77;5.60;;;;;10.30;100507.00;;;;4976844;28;20202;-77
2022/03/30 06:39:42;;;;;;;11.43;5.72;;;;;10.40;100503.00;;;;4972494;28;20355;-77
2022/03/30 06:42:11;;;;;;;13.68;5.68;;;;;10.50;100501.00;;;;4970582;28;20631;-77
2022/03/30 06:44:39;;;;;;;11.43;5.53;;;;;10.50;100506.00;;;;4968631;28;20209;-77
2022/03/30 06:47:07;;;;;;;9.35;5.57;;;;;10.60;100505.00;;;;4967896;28;20592;-77
2022/03/30 06:49:35;;;;;;;8.95;5.68;;;;;10.70;100504.00;;;;4961894;28;20191;-77
2022/03/30 06:52:02;;;;;;;9.70;5.97;;;;;10.80;100512.00;;;;4965062;28;20297;-77
2022/03/30 06:54:30;;;;;;;11.60;5.97;;;;;10.80;100503.00;;;;4964071;28;20198;-77
2022/03/30 06:56:59;;;;;;;8.82;5.30;;;;;10.90;100513.00;;;;4968307;28;20293;-76
2022/03/30 06:59:26;;;;;;;10.38;5.32;;;;;11.00;100508.00;;;;4967323;28;20282;-77
2022/03/30 07:01:55;;;;;;;10.05;5.93;;;;;11.10;100510.00;;;;4977624;28;20206;-77
2022/03/30 07:04:23;;;;;;;13.85;5.82;;;;;11.20;100512.00;;;;4969829;28;20210;-77
2022/03/30 07:12:20;;;;;;;8.77;5.53;;;;;11.50;100502.00;;;;4973093;28;20201;-76
2022/03/30 07:14:47;;;;;;;9.85;5.18;;;;;11.60;100507.00;;;;4977139;28;20215;-77
2022/03/30 07:17:16;;;;;;;11.73;6.35;;;;;11.70;100506.00;;;;4973676;28;20254;-76
2022/03/30 07:19:44;;;;;;;10.10;5.72;;;;;11.80;100503.00;;;;4966792;28;20226;-76
2022/03/30 07:22:13;;;;;;;10.30;5.85;;;;;11.90;100502.00;;;;4969530;28;20209;-76
2022/03/30 07:24:41;;;;;;;11.07;5.80;;;;;12.00;100498.00;;;;4966691;28;20202;-77
2022/03/30 07:27:08;;;;;;;9.77;5.80;;;;;12.20;100496.00;;;;4970290;28;20314;-76
2022/03/30 07:29:35;;;;;;;10.75;5.63;;;;;12.30;100490.00;;;;4971723;28;20210;-76
2022/03/30 07:32:03;;;;;;;11.55;5.55;;;;;12.40;100495.00;;;;4973895;28;20202;-76
2022/03/30 07:34:32;;;;;;;8.63;5.22;;;;;12.50;100488.00;;;;4978384;28;20230;-76
2022/03/30 07:36:59;;;;;;;10.35;6.10;;;;;12.60;100483.00;;;;4971080;28;20206;-76
2022/03/30 07:39:26;;;;;;;10.52;6.22;;;;;12.60;100487.00;;;;4972244;28;20202;-76
2022/03/30 07:41:54;;;;;;;11.25;5.43;;;;;12.70;100480.00;;;;4970622;28;20727;-76
2022/03/30 07:44:21;;;;;;;11.95;5.53;;;;;12.80;100484.00;;;;4972975;28;20551;-76
2022/03/30 07:46:49;;;;;;;8.85;5.05;;;;;12.90;100484.00;;;;4972827;28;20209;-76
2022/03/30 07:49:17;;;;;;;9.65;5.32;;;;;13.00;100476.00;;;;4974197;28;20616;-76
2022/03/30 07:51:46;;;;;;;8.50;4.68;;;;;13.10;100486.00;;;;4973259;28;20210;-76
2022/03/30 07:54:13;;;;;;;9.50;5.43;;;;;13.20;100480.00;;;;4975608;28;20273;-77
2022/03/30 07:56:40;;;;;;;11.88;5.28;;;;;13.30;100490.00;;;;4972879;28;20198;-76
2022/03/30 07:59:07;;;;;;;13.32;5.70;;;;;13.40;100495.00;;;;4976545;28;20629;-77
2022/03/30 08:01:35;;;;;;;9.95;5.95;;;;;13.40;100495.00;;;;4975649;28;20688;-75
2022/03/30 08:04:02;;;;;;;7.80;5.90;;;;;13.50;100485.00;;;;4973750;28;20202;-76
2022/03/30 08:06:30;;;;;;;9.40;5.60;;;;;13.50;100488.00;;;;4967837;28;20995;-76
2022/03/30 08:08:59;;;;;;;11.25;6.13;;;;;13.60;100488.00;;;;4973475;28;20199;-77
2022/03/30 08:11:26;;;;;;;8.95;6.05;;;;;13.70;100497.00;;;;4973228;28;20198;-76
2022/03/30 08:13:53;;;;;;;10.68;6.75;;;;;13.70;100489.00;;;;4973959;28;20334;-77
2022/03/30 08:16:21;;;;;;;9.57;5.80;;;;;13.80;100489.00;;;;4969462;28;20317;-77
2022/03/30 08:18:48;;;;;;;11.85;6.82;;;;;13.90;100487.00;;;;4961661;28;20210;-76
2022/03/30 08:24:02;;;;;;;8.20;5.13;;;;;14.10;100495.00;;;;4961446;28;20214;-76
2022/03/30 08:26:31;;;;;;;11.02;6.30;;;;;14.10;100494.00;;;;4970970;28;20507;-76
2022/03/30 08:28:59;;;;;;;12.45;6.22;;;;;14.20;100490.00;;;;4973305;28;20570;-76
2022/03/30 08:31:26;;;;;;;10.90;7.00;;;;;14.30;100488.00;;;;4970737;28;20672;-76
2022/03/30 08:33:54;;;;;;;10.43;6.50;;;;;14.40;100483.00;;;;4972496;28;20205;-76
2022/03/30 08:36:21;;;;;;;10.75;6.32;;;;;14.40;100480.00;;;;4971798;28;20583;-76
2022/03/30 08:38:48;;;;;;;12.82;6.68;;;;;14.50;100483.00;;;;4979245;28;20232;-76
2022/03/30 08:41:17;;;;;;;10.93;5.70;;;;;14.60;100490.00;;;;4973182;28;20222;-76
2022/03/30 08:43:45;;;;;;;9.95;5.65;;;;;14.60;100486.00;;;;4964481;28;20681;-76
2022/03/30 08:46:14;;;;;;;8.07;4.97;;;;;14.70;100487.00;;;;4967320;28;20202;-76
2022/03/30 08:48:41;;;;;;;10.85;5.68;;;;;14.70;100491.00;;;;4970333;28;20230;-77
2022/03/30 08:51:10;;;;;;;10.38;5.38;;;;;14.70;100482.00;;;;4970656;28;20198;-76
2022/03/30 08:53:38;;;;;;;10.02;5.60;;;;;14.80;100487.00;;;;4971138;28;20205;-77
2022/03/30 08:56:05;;;;;;;10.27;5.80;;;;;14.90;100493.00;;;;4972457;28;20191;-76
2022/03/30 08:58:34;;;;;;;11.13;5.80;;;;;15.00;100490.00;;;;4973152;28;20212;-76
2022/03/30 09:01:08;;;;;;;10.25;6.00;;;;;15.00;100490.00;;;;4969563;28;20222;-77
2022/03/30 09:03:36;;;;;;;9.80;5.75;;;;;15.20;100497.00;;;;4970073;28;20208;-77
2022/03/30 09:06:03;;;;;;;7.95;5.00;;;;;15.30;100490.00;;;;4970899;28;20206;-77
2022/03/30 09:08:31;;;;;;;16.65;6.55;;;;;15.30;100491.00;;;;4964492;28;20198;-77
2022/03/30 09:10:59;;;;;;;8.65;5.82;;;;;15.40;100491.00;;;;4970772;28;20673;-77
2022/03/30 09:13:26;;;;;;;10.40;6.13;;;;;15.40;100494.00;;;;4968004;28;20607;-77
2022/03/30 09:15:55;;;;;;;9.93;5.93;;;;;15.40;100482.00;;;;4965611;28;20230;-77
2022/03/30 09:18:22;;;;;;;10.75;5.75;;;;;15.50;100484.00;;;;4969166;28;20202;-77
2022/03/30 09:20:54;;;;;;;11.13;5.68;;;;;15.60;100477.00;;;;4969503;28;20226;-75
2022/03/30 09:23:25;;;;;;;11.85;6.00;;;;;15.70;100473.00;;;;4972505;28;20195;-76
2022/03/30 09:25:54;;;;;;;8.20;5.03;;;;;15.70;100477.00;;;;4972355;28;20269;-77
2022/03/30 09:28:23;;;;;;;11.27;6.20;;;;;15.80;100464.00;;;;4972114;28;20194;-76
2022/03/30 09:30:52;;;;;;;7.88;4.95;;;;;15.90;100463.00;;;;4969458;28;20198;-76
2022/03/30 09:33:24;;;;;;;7.78;4.65;;;;;15.90;100470.00;;;;4967582;28;20668;-76
2022/03/30 09:35:51;;;;;;;5.32;3.67;;;;;16.00;100461.00;;;;4968361;28;20202;-76
2022/03/30 09:38:21;;;;;;;7.18;4.22;;;;;16.10;100454.00;;;;4966560;28;20199;-76
2022/03/30 09:40:49;;;;;;;8.13;4.80;;;;;16.20;100458.00;;;;4967619;28;20269;-76
2022/03/30 09:43:23;;;;;;;8.20;4.45;;;;;16.30;100454.00;;;;4968668;28;20939;-76
2022/03/30 09:45:52;;;;;;;10.90;4.50;;;;;16.40;100454.00;;;;4969522;28;20776;-75
2022/03/30 09:48:24;;;;;;;8.70;4.43;;;;;16.50;100453.00;;;;4967608;28;20206;-75
2022/03/30 09:50:54;;;;;;;7.38;4.80;;;;;16.60;100457.00;;;;4967881;28;20206;-76
2022/03/30 09:53:25;;;;;;;6.28;4.43;;;;;16.70;100457.00;;;;4968904;28;20209;-75
2022/03/30 09:55:55;;;;;;;6.00;3.58;;;;;16.80;100452.00;;;;4968960;28;20202;-76
2022/03/30 09:58:23;;;;;;;7.18;3.78;;;;;16.90;100443.00;;;;4967442;28;20602;-76
2022/03/30 10:01:14;;;;;;;5.22;3.78;;;;;17.00;100450.00;;;;4968349;28;20839;-76
2022/03/30 10:03:48;;;;;;;5.07;3.95;;;;;17.10;100447.00;;;;4981023;28;20193;-75
2022/03/30 10:06:17;;;;;;;5.78;3.28;;;;;17.30;100440.00;;;;4988186;28;20205;-76
2022/03/30 10:08:46;;;;;;;5.45;3.78;;;;;17.40;100443.00;;;;4972880;28;20214;-75
2022/03/30 10:11:16;;;;;;;5.05;3.45;;;;;17.60;100451.00;;;;4968970;28;20194;-76
2022/03/30 10:13:46;;;;;;;5.78;3.20;;;;;17.70;100449.00;;;;4961830;28;20222;-76
2022/03/30 10:16:14;;;;;;;5.70;3.95;;;;;17.80;100442.00;;;;4963662;28;20230;-76
2022/03/30 10:18:42;;;;;;;3.88;2.92;;;;;17.90;100450.00;;;;4953150;28;20250;-76
2022/03/30 10:21:22;;;;;;;6.25;3.83;;;;;17.90;100436.00;;;;4977278;28;20229;-75
2022/03/30 10:24:23;;;;;;;5.13;3.42;;;;;17.90;100445.00;;;;4966377;28;20576;-76
2022/03/30 10:26:59;;;;;;;4.72;3.38;;;;;18.00;100446.00;;;;4963441;28;20307;-75
2022/03/30 10:29:28;;;;;;;5.07;3.05;;;;;18.10;100433.00;;;;4968145;28;20632;-75
2022/03/30 10:32:14;;;;;;;4.88;3.22;;;;;18.10;100440.00;;;;4968684;28;20608;-75
2022/03/30 10:34:51;;;;;;;5.07;2.92;;;;;18.30;100432.00;;;;4967574;28;20249;-75
2022/03/30 10:37:27;;;;;;;5.32;3.03;;;;;18.40;100434.00;;;;4969483;28;20293;-75
2022/03/30 10:40:06;;;;;;;5.05;3.00;;;;;18.60;100437.00;;;;4973074;28;20198;-75
2022/03/30 10:42:57;;;;;;;4.70;3.38;;;;;18.70;100434.00;;;;4972983;28;20230;-75
2022/03/30 10:45:26;;;;;;;4.93;3.30;;;;;18.90;100426.00;;;;4970515;28;20723;-75
2022/03/30 10:48:14;;;;;;;4.30;2.67;;;;;19.00;100425.00;;;;4972909;28;20290;-75
2022/03/30 10:50:44;;;;;;;5.65;3.38;;;;;19.20;100420.00;;;;4973125;28;20209;-75
2022/03/30 10:53:42;;;;;;;4.88;2.85;;;;;19.30;100415.00;;;;4976663;28;20205;-75
2022/03/30 10:56:32;;;;;;;5.15;3.38;;;;;19.50;100419.00;;;;4969882;28;20195;-75
2022/03/30 10:59:13;;;;;;;4.50;2.97;;;;;19.60;100414.00;;;;4965278;28;20205;-75
2022/03/30 11:01:41;;;;;;;3.90;2.92;;;;;19.80;100411.00;;;;4974691;28;20707;-76
2022/03/30 11:04:22;;;;;;;7.10;3.28;;;;;19.80;100409.00;;;;4973269;28;20197;-75
2022/03/30 11:07:37;;;;;;;4.38;2.97;;;;;19.90;100409.00;;;;4972696;28;20582;-75
2022/03/30 11:10:29;;;;;;;5.35;2.80;;;;;20.00;100402.00;;;;4968476;28;20241;-75
2022/03/30 11:13:06;;;;;;;3.72;3.05;;;;;20.00;100397.00;;;;4972261;28;20209;-76
2022/03/30 11:16:14;;;;;;;5.25;3.05;;;;;20.00;100397.00;;;;4971917;28;20287;-76
2022/03/30 11:19:02;;;;;;;3.83;3.20;;;;;20.00;100388.00;;;;4972196;28;20750;-75
2022/03/30 11:21:30;;;;;;;4.18;3.08;;;;;20.10;100392.00;;;;4962964;28;20409;-76
2022/03/30 11:24:12;;;;;;;4.63;3.00;;;;;19.90;100385.00;;;;4972412;28;20197;-75
2022/03/30 11:27:21;;;;;;;5.25;3.85;;;;;19.90;100389.00;;;;4974590;28;20202;-75
2022/03/30 11:30:03;;;;;;;8.65;4.00;;;;;19.90;100385.00;;;;4977021;28;20575;-76
2022/03/30 11:32:39;;;;;;;5.03;3.03;;;;;19.90;100375.00;;;;4965858;28;20676;-75
2022/03/30 11:35:08;;;;;;;4.18;3.20;;;;;20.00;100367.00;;;;4985306;28;20576;-75
2022/03/30 11:37:37;;;;;;;7.03;3.38;;;;;20.00;100368.00;;;;4971359;28;20665;-75
2022/03/30 11:40:07;;;;;;;5.25;3.30;;;;;20.10;100359.00;;;;4971622;28;20197;-75
2022/03/30 11:42:36;;;;;;;3.53;2.97;;;;;20.20;100355.00;;;;4971423;28;20217;-76
2022/03/30 11:45:15;;;;;;;4.80;3.28;;;;;20.30;100354.00;;;;4977656;28;20214;-75
2022/03/30 11:47:45;;;;;;;5.63;3.30;;;;;20.40;100343.00;;;;4970983;28;20277;-76
2022/03/30 11:50:13;;;;;;;4.25;3.38;;;;;20.50;100344.00;;;;4971152;28;20194;-76
2022/03/30 11:52:42;;;;;;;5.63;3.72;;;;;20.60;100350.00;;;;4970764;28;20872;-76
2022/03/30 11:55:10;;;;;;;6.00;3.00;;;;;20.70;100347.00;;;;4971243;28;20198;-78
2022/03/30 11:57:41;;;;;;;3.65;3.10;;;;;20.80;100351.00;;;;4973804;28;20225;-78
2022/03/30 12:00:12;;;;;;;6.38;3.20;;;;;20.90;100343.00;;;;4976173;28;20198;-76
2022/03/30 12:02:42;;;;;;;3.83;2.67;;;;;21.00;100345.00;;;;4978915;28;20218;-78
2022/03/30 12:05:10;;;;;;;4.40;3.05;;;;;21.00;100342.00;;;;4972434;28;20202;-77
2022/03/30 12:07:39;;;;;;;5.53;3.60;;;;;21.00;100336.00;;;;4973620;28;20194;-77
2022/03/30 12:10:12;;;;;;;5.63;2.85;;;;;20.90;100335.00;;;;4972121;28;20194;-76
2022/03/30 12:12:40;;;;;;;5.28;2.65;;;;;21.00;100334.00;;;;4973171;28;20225;-77
2022/03/30 12:15:12;;;;;;;4.05;2.90;;;;;20.90;100335.00;;;;4965194;28;20218;-76
2022/03/30 12:17:40;;;;;;;3.58;2.85;;;;;20.90;100325.00;;;;4973406;28;20203;-76
2022/03/30 12:20:10;;;;;;;2.97;2.45;;;;;20.90;100323.00;;;;4975968;28;20209;-76
2022/03/30 12:22:38;;;;;;;4.40;2.60;;;;;20.90;100317.00;;;;4969647;28;20234;-75
2022/03/30 12:25:17;;;;;;;3.20;2.45;;;;;20.90;100318.00;;;;4971884;28;20194;-77
2022/03/30 12:27:45;;;;;;;4.47;1.92;;;;;21.00;100315.00;;;;4970884;28;20213;-76
2022/03/30 12:30:13;;;;;;;3.42;2.00;;;;;21.10;100310.00;;;;4973127;28;20203;-77